sensor_id;sensor_type;location;lat;lon;timestamp;temperature;humidity
38488;DHT22;57384;51.986;4.458;2022-09-09T00:02:01;18.70;57.50
38488;DHT22;57384;51.986;4.458;2022-09-09T00:07:41;18.70;57.60
38488;DHT22;57384;51.986;4.458;2022-09-09T00:10:21;18.60;57.60
38488;DHT22;57384;51.986;4.458;2022-09-09T00:18:24;18.60;57.60
38488;DHT22;57384;51.986;4.458;2022-09-09T00:21:02;18.50;57.60
38488;DHT22;57384;51.986;4.458;2022-09-09T00:23:43;18.50;57.60
38488;DHT22;57384;51.986;4.458;2022-09-09T00:26:16;18.40;57.60
38488;DHT22;57384;51.986;4.458;2022-09-09T00:29:10;18.40;57.60
38488;DHT22;57384;51.986;4.458;2022-09-09T00:31:34;18.50;57.70
38488;DHT22;57384;51.986;4.458;2022-09-09T00:34:20;18.40;57.70
38488;DHT22;57384;51.986;4.458;2022-09-09T00:36:48;18.40;57.70
38488;DHT22;57384;51.986;4.458;2022-09-09T00:41:57;18.40;57.70
38488;DHT22;57384;51.986;4.458;2022-09-09T00:44:33;18.30;57.70
38488;DHT22;57384;51.986;4.458;2022-09-09T00:54:47;18.20;57.80
38488;DHT22;57384;51.986;4.458;2022-09-09T00:57:26;18.20;57.80
38488;DHT22;57384;51.986;4.458;2022-09-09T01:05:21;18.20;57.90
38488;DHT22;57384;51.986;4.458;2022-09-09T01:07:50;18.10;57.80
38488;DHT22;57384;51.986;4.458;2022-09-09T01:10:23;18.10;57.90
38488;DHT22;57384;51.986;4.458;2022-09-09T01:12:54;18.10;57.90
38488;DHT22;57384;51.986;4.458;2022-09-09T01:15:23;18.10;57.90
38488;DHT22;57384;51.986;4.458;2022-09-09T01:23:33;18.10;58.00
38488;DHT22;57384;51.986;4.458;2022-09-09T01:28:48;18.00;57.90
38488;DHT22;57384;51.986;4.458;2022-09-09T01:31:17;18.00;57.90
38488;DHT22;57384;51.986;4.458;2022-09-09T01:33:48;18.00;57.90
38488;DHT22;57384;51.986;4.458;2022-09-09T01:38:42;18.00;58.00
38488;DHT22;57384;51.986;4.458;2022-09-09T01:41:08;18.00;58.00
38488;DHT22;57384;51.986;4.458;2022-09-09T01:43:35;18.00;58.00
38488;DHT22;57384;51.986;4.458;2022-09-09T01:46:02;18.00;58.00
38488;DHT22;57384;51.986;4.458;2022-09-09T01:48:28;18.00;58.00
38488;DHT22;57384;51.986;4.458;2022-09-09T01:50:56;17.90;57.90
38488;DHT22;57384;51.986;4.458;2022-09-09T01:53:25;17.90;58.00
38488;DHT22;57384;51.986;4.458;2022-09-09T02:03:44;17.90;58.00
38488;DHT22;57384;51.986;4.458;2022-09-09T02:06:28;17.80;58.00
38488;DHT22;57384;51.986;4.458;2022-09-09T02:08:57;17.80;58.00
38488;DHT22;57384;51.986;4.458;2022-09-09T02:11:30;17.80;58.00
38488;DHT22;57384;51.986;4.458;2022-09-09T02:14:04;17.80;58.10
38488;DHT22;57384;51.986;4.458;2022-09-09T02:16:55;17.80;58.10
38488;DHT22;57384;51.986;4.458;2022-09-09T02:19:27;17.80;58.20
38488;DHT22;57384;51.986;4.458;2022-09-09T02:21:56;17.80;58.20
38488;DHT22;57384;51.986;4.458;2022-09-09T02:24:28;17.80;58.20
38488;DHT22;57384;51.986;4.458;2022-09-09T02:26:55;17.70;58.10
38488;DHT22;57384;51.986;4.458;2022-09-09T02:29:27;17.70;58.20
38488;DHT22;57384;51.986;4.458;2022-09-09T02:31:55;17.70;58.20
38488;DHT22;57384;51.986;4.458;2022-09-09T02:34:24;17.70;58.30
38488;DHT22;57384;51.986;4.458;2022-09-09T02:37:00;17.70;58.30
38488;DHT22;57384;51.986;4.458;2022-09-09T02:39:27;17.70;58.40
38488;DHT22;57384;51.986;4.458;2022-09-09T02:41:55;17.70;58.40
38488;DHT22;57384;51.986;4.458;2022-09-09T02:44:24;17.70;58.40
38488;DHT22;57384;51.986;4.458;2022-09-09T02:47:01;17.70;58.70
38488;DHT22;57384;51.986;4.458;2022-09-09T02:49:48;17.70;58.50
38488;DHT22;57384;51.986;4.458;2022-09-09T02:52:21;17.70;59.10
38488;DHT22;57384;51.986;4.458;2022-09-09T02:54:54;17.60;58.50
38488;DHT22;57384;51.986;4.458;2022-09-09T02:57:23;17.60;58.50
38488;DHT22;57384;51.986;4.458;2022-09-09T02:59:52;17.60;58.50
38488;DHT22;57384;51.986;4.458;2022-09-09T03:02:18;17.60;58.50
38488;DHT22;57384;51.986;4.458;2022-09-09T03:04:48;17.60;58.50
38488;DHT22;57384;51.986;4.458;2022-09-09T03:07:20;17.60;58.50
38488;DHT22;57384;51.986;4.458;2022-09-09T03:09:50;17.60;58.50
38488;DHT22;57384;51.986;4.458;2022-09-09T03:12:16;17.60;58.50
38488;DHT22;57384;51.986;4.458;2022-09-09T03:14:43;17.60;58.50
38488;DHT22;57384;51.986;4.458;2022-09-09T03:17:15;17.60;58.50
38488;DHT22;57384;51.986;4.458;2022-09-09T03:19:42;17.60;58.60
38488;DHT22;57384;51.986;4.458;2022-09-09T03:22:11;17.50;58.50
38488;DHT22;57384;51.986;4.458;2022-09-09T03:24:38;17.50;59.10
38488;DHT22;57384;51.986;4.458;2022-09-09T03:27:05;17.50;58.60
38488;DHT22;57384;51.986;4.458;2022-09-09T03:29:40;17.50;58.60
38488;DHT22;57384;51.986;4.458;2022-09-09T03:32:14;17.50;58.60
38488;DHT22;57384;51.986;4.458;2022-09-09T03:35:18;17.40;58.60
38488;DHT22;57384;51.986;4.458;2022-09-09T03:37:46;17.50;58.70
38488;DHT22;57384;51.986;4.458;2022-09-09T03:40:13;17.50;58.70
38488;DHT22;57384;51.986;4.458;2022-09-09T03:42:49;17.40;58.70
38488;DHT22;57384;51.986;4.458;2022-09-09T03:45:34;17.40;58.70
38488;DHT22;57384;51.986;4.458;2022-09-09T03:48:09;17.40;58.80
38488;DHT22;57384;51.986;4.458;2022-09-09T03:50:41;17.40;58.80
38488;DHT22;57384;51.986;4.458;2022-09-09T03:53:15;17.40;58.90
38488;DHT22;57384;51.986;4.458;2022-09-09T03:56:04;17.40;58.80
38488;DHT22;57384;51.986;4.458;2022-09-09T03:58:47;17.40;58.80
38488;DHT22;57384;51.986;4.458;2022-09-09T04:01:18;17.40;58.90
38488;DHT22;57384;51.986;4.458;2022-09-09T04:03:50;17.30;58.90
38488;DHT22;57384;51.986;4.458;2022-09-09T04:09:10;17.30;58.90
38488;DHT22;57384;51.986;4.458;2022-09-09T04:11:40;17.30;58.90
38488;DHT22;57384;51.986;4.458;2022-09-09T04:14:07;17.30;58.90
38488;DHT22;57384;51.986;4.458;2022-09-09T04:16:44;17.30;58.90
38488;DHT22;57384;51.986;4.458;2022-09-09T04:19:35;17.30;59.00
38488;DHT22;57384;51.986;4.458;2022-09-09T04:22:09;17.30;59.00
38488;DHT22;57384;51.986;4.458;2022-09-09T04:25:00;17.30;59.10
38488;DHT22;57384;51.986;4.458;2022-09-09T04:27:34;17.30;59.10
38488;DHT22;57384;51.986;4.458;2022-09-09T04:30:24;17.30;59.10
38488;DHT22;57384;51.986;4.458;2022-09-09T04:32:59;17.20;59.10
38488;DHT22;57384;51.986;4.458;2022-09-09T04:38:30;17.20;59.20
38488;DHT22;57384;51.986;4.458;2022-09-09T04:41:05;17.20;59.20
38488;DHT22;57384;51.986;4.458;2022-09-09T04:46:45;17.20;59.40
38488;DHT22;57384;51.986;4.458;2022-09-09T04:49:20;17.20;59.40
38488;DHT22;57384;51.986;4.458;2022-09-09T04:51:58;17.20;59.40
38488;DHT22;57384;51.986;4.458;2022-09-09T04:54:28;17.20;59.50
38488;DHT22;57384;51.986;4.458;2022-09-09T04:57:04;17.10;59.50
38488;DHT22;57384;51.986;4.458;2022-09-09T04:59:31;17.10;59.50
38488;DHT22;57384;51.986;4.458;2022-09-09T05:01:57;17.10;59.60
38488;DHT22;57384;51.986;4.458;2022-09-09T05:04:24;17.10;59.70
38488;DHT22;57384;51.986;4.458;2022-09-09T05:06:50;17.10;59.70
38488;DHT22;57384;51.986;4.458;2022-09-09T05:09:17;17.10;59.70
38488;DHT22;57384;51.986;4.458;2022-09-09T05:11:51;17.10;59.80
38488;DHT22;57384;51.986;4.458;2022-09-09T05:14:18;17.10;59.70
38488;DHT22;57384;51.986;4.458;2022-09-09T05:16:45;17.10;59.80
38488;DHT22;57384;51.986;4.458;2022-09-09T05:19:14;17.10;59.90
38488;DHT22;57384;51.986;4.458;2022-09-09T05:21:43;17.10;60.00
38488;DHT22;57384;51.986;4.458;2022-09-09T05:24:10;17.10;60.00
38488;DHT22;57384;51.986;4.458;2022-09-09T05:26:41;17.10;60.00
38488;DHT22;57384;51.986;4.458;2022-09-09T05:29:16;17.10;60.00
38488;DHT22;57384;51.986;4.458;2022-09-09T05:31:43;17.00;60.10
38488;DHT22;57384;51.986;4.458;2022-09-09T05:37:09;17.00;60.10
38488;DHT22;57384;51.986;4.458;2022-09-09T05:39:57;17.00;60.10
38488;DHT22;57384;51.986;4.458;2022-09-09T05:42:24;17.10;60.20
38488;DHT22;57384;51.986;4.458;2022-09-09T05:44:51;17.10;60.20
38488;DHT22;57384;51.986;4.458;2022-09-09T05:47:17;17.10;60.20
38488;DHT22;57384;51.986;4.458;2022-09-09T05:49:50;17.10;60.30
38488;DHT22;57384;51.986;4.458;2022-09-09T05:52:38;17.10;60.50
38488;DHT22;57384;51.986;4.458;2022-09-09T05:55:21;17.10;60.60
38488;DHT22;57384;51.986;4.458;2022-09-09T05:57:51;17.10;60.60
38488;DHT22;57384;51.986;4.458;2022-09-09T06:00:26;17.10;60.60
38488;DHT22;57384;51.986;4.458;2022-09-09T06:02:55;17.20;60.60
38488;DHT22;57384;51.986;4.458;2022-09-09T06:05:24;17.20;60.60
38488;DHT22;57384;51.986;4.458;2022-09-09T06:07:52;17.20;60.50
38488;DHT22;57384;51.986;4.458;2022-09-09T06:10:21;17.20;60.50
38488;DHT22;57384;51.986;4.458;2022-09-09T06:12:53;17.30;60.50
38488;DHT22;57384;51.986;4.458;2022-09-09T06:15:20;17.30;60.60
38488;DHT22;57384;51.986;4.458;2022-09-09T06:17:47;17.30;60.60
38488;DHT22;57384;51.986;4.458;2022-09-09T06:20:24;17.40;60.60
38488;DHT22;57384;51.986;4.458;2022-09-09T06:22:53;17.30;60.60
38488;DHT22;57384;51.986;4.458;2022-09-09T06:25:21;17.40;60.60
38488;DHT22;57384;51.986;4.458;2022-09-09T06:27:51;17.40;60.60
38488;DHT22;57384;51.986;4.458;2022-09-09T06:30:22;17.50;60.80
38488;DHT22;57384;51.986;4.458;2022-09-09T06:32:55;17.50;60.80
38488;DHT22;57384;51.986;4.458;2022-09-09T06:35:22;17.50;60.80
38488;DHT22;57384;51.986;4.458;2022-09-09T06:37:48;17.50;60.80
38488;DHT22;57384;51.986;4.458;2022-09-09T06:40:24;17.50;60.80
38488;DHT22;57384;51.986;4.458;2022-09-09T06:42:51;17.60;60.80
38488;DHT22;57384;51.986;4.458;2022-09-09T06:45:18;17.60;60.80
38488;DHT22;57384;51.986;4.458;2022-09-09T06:47:54;17.60;60.80
38488;DHT22;57384;51.986;4.458;2022-09-09T06:50:23;17.70;60.90
38488;DHT22;57384;51.986;4.458;2022-09-09T06:52:50;17.70;60.90
38488;DHT22;57384;51.986;4.458;2022-09-09T06:55:19;17.70;61.00
38488;DHT22;57384;51.986;4.458;2022-09-09T06:57:46;17.70;61.10
38488;DHT22;57384;51.986;4.458;2022-09-09T07:00:20;17.80;61.20
38488;DHT22;57384;51.986;4.458;2022-09-09T07:02:47;17.80;61.20
38488;DHT22;57384;51.986;4.458;2022-09-09T07:05:14;17.80;61.20
38488;DHT22;57384;51.986;4.458;2022-09-09T07:07:41;17.90;61.20
38488;DHT22;57384;51.986;4.458;2022-09-09T07:10:10;17.90;61.20
38488;DHT22;57384;51.986;4.458;2022-09-09T07:12:37;17.90;61.20
38488;DHT22;57384;51.986;4.458;2022-09-09T07:15:03;17.90;61.20
38488;DHT22;57384;51.986;4.458;2022-09-09T07:17:32;18.00;61.30
38488;DHT22;57384;51.986;4.458;2022-09-09T07:20:02;18.00;61.30
38488;DHT22;57384;51.986;4.458;2022-09-09T07:22:32;18.00;61.30
38488;DHT22;57384;51.986;4.458;2022-09-09T07:25:01;18.00;61.30
38488;DHT22;57384;51.986;4.458;2022-09-09T07:27:35;18.10;61.40
38488;DHT22;57384;51.986;4.458;2022-09-09T07:30:05;18.10;61.40
38488;DHT22;57384;51.986;4.458;2022-09-09T07:32:32;18.10;61.40
38488;DHT22;57384;51.986;4.458;2022-09-09T07:34:58;18.10;61.40
38488;DHT22;57384;51.986;4.458;2022-09-09T07:37:28;18.10;61.40
38488;DHT22;57384;51.986;4.458;2022-09-09T07:39:58;18.10;61.40
38488;DHT22;57384;51.986;4.458;2022-09-09T07:42:24;18.10;61.40
38488;DHT22;57384;51.986;4.458;2022-09-09T07:44:53;18.20;61.60
38488;DHT22;57384;51.986;4.458;2022-09-09T07:47:20;18.20;61.60
38488;DHT22;57384;51.986;4.458;2022-09-09T07:49:55;18.20;61.70
38488;DHT22;57384;51.986;4.458;2022-09-09T07:52:21;18.20;61.80
38488;DHT22;57384;51.986;4.458;2022-09-09T07:54:48;18.20;61.80
38488;DHT22;57384;51.986;4.458;2022-09-09T07:57:17;18.20;61.90
38488;DHT22;57384;51.986;4.458;2022-09-09T07:59:44;18.20;61.90
38488;DHT22;57384;51.986;4.458;2022-09-09T08:02:11;18.20;61.80
38488;DHT22;57384;51.986;4.458;2022-09-09T08:04:37;18.20;61.80
38488;DHT22;57384;51.986;4.458;2022-09-09T08:07:06;18.30;61.80
38488;DHT22;57384;51.986;4.458;2022-09-09T08:09:35;18.30;61.80
38488;DHT22;57384;51.986;4.458;2022-09-09T08:12:16;18.30;61.80
38488;DHT22;57384;51.986;4.458;2022-09-09T08:14:46;18.30;61.80
38488;DHT22;57384;51.986;4.458;2022-09-09T08:17:13;18.30;61.80
38488;DHT22;57384;51.986;4.458;2022-09-09T08:19:49;18.30;61.80
38488;DHT22;57384;51.986;4.458;2022-09-09T08:22:23;18.40;61.80
38488;DHT22;57384;51.986;4.458;2022-09-09T08:24:50;18.40;61.80
38488;DHT22;57384;51.986;4.458;2022-09-09T08:27:17;18.40;61.80
38488;DHT22;57384;51.986;4.458;2022-09-09T08:29:46;18.40;61.80
38488;DHT22;57384;51.986;4.458;2022-09-09T08:32:15;18.50;61.90
38488;DHT22;57384;51.986;4.458;2022-09-09T08:34:47;18.50;61.90
38488;DHT22;57384;51.986;4.458;2022-09-09T08:37:14;18.50;62.00
38488;DHT22;57384;51.986;4.458;2022-09-09T08:39:44;18.50;61.90
38488;DHT22;57384;51.986;4.458;2022-09-09T08:52:43;18.60;62.00
38488;DHT22;57384;51.986;4.458;2022-09-09T08:57:59;18.60;62.00
38488;DHT22;57384;51.986;4.458;2022-09-09T09:00:30;18.60;62.00
38488;DHT22;57384;51.986;4.458;2022-09-09T09:05:59;18.60;62.10
38488;DHT22;57384;51.986;4.458;2022-09-09T09:10:57;18.60;61.60
38488;DHT22;57384;51.986;4.458;2022-09-09T09:13:58;18.60;62.00
38488;DHT22;57384;51.986;4.458;2022-09-09T09:19:06;18.60;62.00
38488;DHT22;57384;51.986;4.458;2022-09-09T09:21:54;18.70;62.10
38488;DHT22;57384;51.986;4.458;2022-09-09T09:24:38;18.70;62.10
38488;DHT22;57384;51.986;4.458;2022-09-09T09:27:11;18.70;62.10
38488;DHT22;57384;51.986;4.458;2022-09-09T09:29:38;18.70;62.10
38488;DHT22;57384;51.986;4.458;2022-09-09T09:32:07;18.70;62.10
38488;DHT22;57384;51.986;4.458;2022-09-09T09:34:37;18.70;62.20
38488;DHT22;57384;51.986;4.458;2022-09-09T09:37:27;18.70;62.70
38488;DHT22;57384;51.986;4.458;2022-09-09T09:39:52;18.80;62.20
38488;DHT22;57384;51.986;4.458;2022-09-09T09:42:18;18.80;62.20
38488;DHT22;57384;51.986;4.458;2022-09-09T09:44:55;18.90;62.20
38488;DHT22;57384;51.986;4.458;2022-09-09T09:47:23;18.80;62.00
38488;DHT22;57384;51.986;4.458;2022-09-09T09:50:00;18.90;62.10
38488;DHT22;57384;51.986;4.458;2022-09-09T09:52:29;19.00;62.20
38488;DHT22;57384;51.986;4.458;2022-09-09T09:55:11;19.00;62.20
38488;DHT22;57384;51.986;4.458;2022-09-09T09:57:39;19.10;62.10
38488;DHT22;57384;51.986;4.458;2022-09-09T10:00:16;19.10;62.00
38488;DHT22;57384;51.986;4.458;2022-09-09T10:02:43;19.20;62.10
38488;DHT22;57384;51.986;4.458;2022-09-09T10:05:14;19.20;62.00
38488;DHT22;57384;51.986;4.458;2022-09-09T10:07:41;19.30;62.20
38488;DHT22;57384;51.986;4.458;2022-09-09T10:10:08;19.20;62.30
38488;DHT22;57384;51.986;4.458;2022-09-09T10:12:59;19.30;62.40
38488;DHT22;57384;51.986;4.458;2022-09-09T10:15:39;19.30;62.40
38488;DHT22;57384;51.986;4.458;2022-09-09T10:18:17;19.30;62.40
38488;DHT22;57384;51.986;4.458;2022-09-09T10:33:44;19.40;63.00
38488;DHT22;57384;51.986;4.458;2022-09-09T10:39:28;19.50;63.20
38488;DHT22;57384;51.986;4.458;2022-09-09T10:46:58;19.70;63.20
38488;DHT22;57384;51.986;4.458;2022-09-09T10:52:09;19.80;63.20
38488;DHT22;57384;51.986;4.458;2022-09-09T10:59:48;20.00;63.30
38488;DHT22;57384;51.986;4.458;2022-09-09T11:02:30;20.00;63.30
38488;DHT22;57384;51.986;4.458;2022-09-09T11:07:43;20.20;63.20
38488;DHT22;57384;51.986;4.458;2022-09-09T11:13:15;20.50;63.10
38488;DHT22;57384;51.986;4.458;2022-09-09T11:15:49;20.60;63.00
38488;DHT22;57384;51.986;4.458;2022-09-09T11:18:19;20.70;62.80
38488;DHT22;57384;51.986;4.458;2022-09-09T11:20:49;20.80;62.90
38488;DHT22;57384;51.986;4.458;2022-09-09T11:23:18;21.00;62.90
38488;DHT22;57384;51.986;4.458;2022-09-09T11:25:49;21.10;62.80
38488;DHT22;57384;51.986;4.458;2022-09-09T11:36:03;21.50;62.70
38488;DHT22;57384;51.986;4.458;2022-09-09T11:41:06;21.70;62.80
38488;DHT22;57384;51.986;4.458;2022-09-09T11:43:43;21.70;62.80
38488;DHT22;57384;51.986;4.458;2022-09-09T11:46:14;21.80;63.00
38488;DHT22;57384;51.986;4.458;2022-09-09T11:49:02;21.80;63.20
38488;DHT22;57384;51.986;4.458;2022-09-09T11:51:30;21.80;63.30
38488;DHT22;57384;51.986;4.458;2022-09-09T11:53:58;21.80;63.40
38488;DHT22;57384;51.986;4.458;2022-09-09T11:56:25;21.80;63.50
38488;DHT22;57384;51.986;4.458;2022-09-09T11:58:56;21.80;63.60
38488;DHT22;57384;51.986;4.458;2022-09-09T12:01:28;21.70;64.20
38488;DHT22;57384;51.986;4.458;2022-09-09T12:06:41;21.70;63.80
38488;DHT22;57384;51.986;4.458;2022-09-09T12:12:06;21.60;63.80
38488;DHT22;57384;51.986;4.458;2022-09-09T12:14:37;21.60;63.90
38488;DHT22;57384;51.986;4.458;2022-09-09T12:19:37;21.60;64.00
38488;DHT22;57384;51.986;4.458;2022-09-09T12:27:26;21.50;64.10
38488;DHT22;57384;51.986;4.458;2022-09-09T12:30:04;21.40;64.10
38488;DHT22;57384;51.986;4.458;2022-09-09T12:32:35;21.40;64.20
38488;DHT22;57384;51.986;4.458;2022-09-09T12:37:35;21.40;64.10
38488;DHT22;57384;51.986;4.458;2022-09-09T12:40:06;21.40;64.20
38488;DHT22;57384;51.986;4.458;2022-09-09T12:42:33;21.40;64.20
38488;DHT22;57384;51.986;4.458;2022-09-09T12:45:14;21.40;64.20
38488;DHT22;57384;51.986;4.458;2022-09-09T12:47:44;21.30;64.20
38488;DHT22;57384;51.986;4.458;2022-09-09T12:50:25;21.30;64.20
38488;DHT22;57384;51.986;4.458;2022-09-09T12:53:08;21.30;64.20
38488;DHT22;57384;51.986;4.458;2022-09-09T12:55:36;21.30;64.10
38488;DHT22;57384;51.986;4.458;2022-09-09T12:58:04;21.30;64.20
38488;DHT22;57384;51.986;4.458;2022-09-09T13:00:32;21.30;64.20
38488;DHT22;57384;51.986;4.458;2022-09-09T13:03:00;21.30;64.20
38488;DHT22;57384;51.986;4.458;2022-09-09T13:05:37;21.30;64.10
38488;DHT22;57384;51.986;4.458;2022-09-09T13:08:05;21.40;64.10
38488;DHT22;57384;51.986;4.458;2022-09-09T13:10:33;21.40;64.20
38488;DHT22;57384;51.986;4.458;2022-09-09T13:13:01;21.40;63.90
38488;DHT22;57384;51.986;4.458;2022-09-09T13:15:28;21.50;63.80
38488;DHT22;57384;51.986;4.458;2022-09-09T13:17:56;21.50;63.70
38488;DHT22;57384;51.986;4.458;2022-09-09T13:20:24;21.60;63.60
38488;DHT22;57384;51.986;4.458;2022-09-09T13:22:51;21.70;63.70
38488;DHT22;57384;51.986;4.458;2022-09-09T13:25:25;21.70;63.60
38488;DHT22;57384;51.986;4.458;2022-09-09T13:27:59;21.80;63.70
38488;DHT22;57384;51.986;4.458;2022-09-09T13:30:33;21.80;63.60
38488;DHT22;57384;51.986;4.458;2022-09-09T13:33:18;21.90;63.60
38488;DHT22;57384;51.986;4.458;2022-09-09T13:35:54;21.90;63.50
38488;DHT22;57384;51.986;4.458;2022-09-09T13:38:21;22.00;63.50
38488;DHT22;57384;51.986;4.458;2022-09-09T13:50:09;22.10;63.50
38488;DHT22;57384;51.986;4.458;2022-09-09T13:52:35;22.10;63.60
38488;DHT22;57384;51.986;4.458;2022-09-09T13:55:05;22.20;63.80
38488;DHT22;57384;51.986;4.458;2022-09-09T13:57:32;22.10;63.80
38488;DHT22;57384;51.986;4.458;2022-09-09T14:09:17;21.90;64.10
38488;DHT22;57384;51.986;4.458;2022-09-09T14:11:44;21.90;64.20
38488;DHT22;57384;51.986;4.458;2022-09-09T14:14:11;21.80;64.30
38488;DHT22;57384;51.986;4.458;2022-09-09T14:16:37;21.80;65.00
38488;DHT22;57384;51.986;4.458;2022-09-09T14:19:04;21.70;64.40
38488;DHT22;57384;51.986;4.458;2022-09-09T14:21:30;21.70;64.40
38488;DHT22;57384;51.986;4.458;2022-09-09T14:23:57;21.70;64.50
38488;DHT22;57384;51.986;4.458;2022-09-09T14:26:23;21.60;64.50
38488;DHT22;57384;51.986;4.458;2022-09-09T14:28:52;21.60;64.50
38488;DHT22;57384;51.986;4.458;2022-09-09T14:31:18;21.60;64.60
38488;DHT22;57384;51.986;4.458;2022-09-09T14:33:54;21.60;64.60
38488;DHT22;57384;51.986;4.458;2022-09-09T14:36:20;21.50;64.60
38488;DHT22;57384;51.986;4.458;2022-09-09T14:38:47;21.50;64.50
38488;DHT22;57384;51.986;4.458;2022-09-09T14:41:17;21.50;64.50
38488;DHT22;57384;51.986;4.458;2022-09-09T14:43:46;21.50;64.50
38488;DHT22;57384;51.986;4.458;2022-09-09T14:46:14;21.50;64.40
38488;DHT22;57384;51.986;4.458;2022-09-09T14:48:41;21.50;64.30
38488;DHT22;57384;51.986;4.458;2022-09-09T14:51:09;21.60;64.30
38488;DHT22;57384;51.986;4.458;2022-09-09T14:53:35;21.50;64.20
38488;DHT22;57384;51.986;4.458;2022-09-09T14:56:09;21.60;64.10
38488;DHT22;57384;51.986;4.458;2022-09-09T14:58:36;21.60;64.00
38488;DHT22;57384;51.986;4.458;2022-09-09T15:01:05;21.60;63.90
38488;DHT22;57384;51.986;4.458;2022-09-09T15:03:32;21.70;63.90
38488;DHT22;57384;51.986;4.458;2022-09-09T15:06:04;21.70;63.80
38488;DHT22;57384;51.986;4.458;2022-09-09T15:08:30;21.70;63.70
38488;DHT22;57384;51.986;4.458;2022-09-09T15:11:00;21.70;63.70
38488;DHT22;57384;51.986;4.458;2022-09-09T15:13:27;21.80;63.60
38488;DHT22;57384;51.986;4.458;2022-09-09T15:15:54;21.80;63.60
38488;DHT22;57384;51.986;4.458;2022-09-09T15:18:20;21.80;63.60
38488;DHT22;57384;51.986;4.458;2022-09-09T15:20:47;21.80;63.50
38488;DHT22;57384;51.986;4.458;2022-09-09T15:23:14;21.90;63.60
38488;DHT22;57384;51.986;4.458;2022-09-09T15:25:50;21.80;63.50
38488;DHT22;57384;51.986;4.458;2022-09-09T15:28:16;21.90;63.60
38488;DHT22;57384;51.986;4.458;2022-09-09T15:30:42;21.80;63.60
38488;DHT22;57384;51.986;4.458;2022-09-09T15:33:09;21.80;63.60
38488;DHT22;57384;51.986;4.458;2022-09-09T15:35:37;21.80;63.60
38488;DHT22;57384;51.986;4.458;2022-09-09T15:38:03;21.80;63.60
38488;DHT22;57384;51.986;4.458;2022-09-09T15:40:35;21.80;63.70
38488;DHT22;57384;51.986;4.458;2022-09-09T15:43:02;21.80;63.70
38488;DHT22;57384;51.986;4.458;2022-09-09T15:45:28;21.80;63.80
38488;DHT22;57384;51.986;4.458;2022-09-09T15:47:57;21.70;63.70
38488;DHT22;57384;51.986;4.458;2022-09-09T15:50:24;21.70;63.80
38488;DHT22;57384;51.986;4.458;2022-09-09T15:52:54;21.70;63.90
38488;DHT22;57384;51.986;4.458;2022-09-09T15:55:20;21.70;63.90
38488;DHT22;57384;51.986;4.458;2022-09-09T15:57:47;21.70;64.00
38488;DHT22;57384;51.986;4.458;2022-09-09T16:00:13;21.70;64.00
38488;DHT22;57384;51.986;4.458;2022-09-09T16:02:40;21.60;64.00
38488;DHT22;57384;51.986;4.458;2022-09-09T16:05:06;21.60;64.00
38488;DHT22;57384;51.986;4.458;2022-09-09T16:07:33;21.60;64.00
38488;DHT22;57384;51.986;4.458;2022-09-09T16:10:00;21.60;64.10
38488;DHT22;57384;51.986;4.458;2022-09-09T16:12:26;21.60;64.70
38488;DHT22;57384;51.986;4.458;2022-09-09T16:14:53;21.60;64.20
38488;DHT22;57384;51.986;4.458;2022-09-09T16:17:19;21.50;64.10
38488;DHT22;57384;51.986;4.458;2022-09-09T16:19:46;21.50;64.20
38488;DHT22;57384;51.986;4.458;2022-09-09T16:22:12;21.50;64.20
38488;DHT22;57384;51.986;4.458;2022-09-09T16:24:38;21.50;64.20
38488;DHT22;57384;51.986;4.458;2022-09-09T16:27:05;21.50;64.30
38488;DHT22;57384;51.986;4.458;2022-09-09T16:29:32;21.40;64.30
38488;DHT22;57384;51.986;4.458;2022-09-09T16:31:58;21.40;64.30
38488;DHT22;57384;51.986;4.458;2022-09-09T16:34:25;21.30;64.20
38488;DHT22;57384;51.986;4.458;2022-09-09T16:36:51;21.30;64.30
38488;DHT22;57384;51.986;4.458;2022-09-09T16:39:18;21.30;65.00
38488;DHT22;57384;51.986;4.458;2022-09-09T16:41:48;21.30;64.40
38488;DHT22;57384;51.986;4.458;2022-09-09T16:44:18;21.30;64.40
38488;DHT22;57384;51.986;4.458;2022-09-09T16:46:45;21.30;64.40
38488;DHT22;57384;51.986;4.458;2022-09-09T16:49:14;21.30;64.40
38488;DHT22;57384;51.986;4.458;2022-09-09T16:51:42;21.30;64.40
38488;DHT22;57384;51.986;4.458;2022-09-09T16:54:09;21.30;64.40
38488;DHT22;57384;51.986;4.458;2022-09-09T16:56:38;21.20;64.30
38488;DHT22;57384;51.986;4.458;2022-09-09T16:59:07;21.20;64.40
38488;DHT22;57384;51.986;4.458;2022-09-09T17:01:34;21.20;64.40
38488;DHT22;57384;51.986;4.458;2022-09-09T17:04:01;21.20;64.40
38488;DHT22;57384;51.986;4.458;2022-09-09T17:06:28;21.20;64.40
38488;DHT22;57384;51.986;4.458;2022-09-09T17:11:22;21.10;64.40
38488;DHT22;57384;51.986;4.458;2022-09-09T17:13:50;21.10;64.50
38488;DHT22;57384;51.986;4.458;2022-09-09T17:16:17;21.10;64.50
38488;DHT22;57384;51.986;4.458;2022-09-09T17:18:44;21.00;64.50
38488;DHT22;57384;51.986;4.458;2022-09-09T17:21:12;21.00;64.50
38488;DHT22;57384;51.986;4.458;2022-09-09T17:23:39;21.00;64.50
38488;DHT22;57384;51.986;4.458;2022-09-09T17:26:07;21.00;64.60
38488;DHT22;57384;51.986;4.458;2022-09-09T17:28:34;20.90;64.60
38488;DHT22;57384;51.986;4.458;2022-09-09T17:31:00;20.90;64.60
38488;DHT22;57384;51.986;4.458;2022-09-09T17:33:27;20.80;64.60
38488;DHT22;57384;51.986;4.458;2022-09-09T17:35:54;20.80;64.70
38488;DHT22;57384;51.986;4.458;2022-09-09T17:38:20;20.70;64.60
38488;DHT22;57384;51.986;4.458;2022-09-09T17:40:47;20.70;64.60
38488;DHT22;57384;51.986;4.458;2022-09-09T17:43:13;20.70;64.70
38488;DHT22;57384;51.986;4.458;2022-09-09T17:45:42;20.60;64.60
38488;DHT22;57384;51.986;4.458;2022-09-09T17:48:11;20.60;64.70
38488;DHT22;57384;51.986;4.458;2022-09-09T17:50:37;20.60;64.70
38488;DHT22;57384;51.986;4.458;2022-09-09T17:53:04;20.60;64.70
38488;DHT22;57384;51.986;4.458;2022-09-09T17:55:32;20.60;64.80
38488;DHT22;57384;51.986;4.458;2022-09-09T17:58:01;20.50;64.70
38488;DHT22;57384;51.986;4.458;2022-09-09T18:00:39;20.50;64.70
38488;DHT22;57384;51.986;4.458;2022-09-09T18:03:08;20.50;64.70
38488;DHT22;57384;51.986;4.458;2022-09-09T18:05:34;20.40;64.70
38488;DHT22;57384;51.986;4.458;2022-09-09T18:08:06;20.40;64.80
38488;DHT22;57384;51.986;4.458;2022-09-09T18:10:33;20.40;64.80
38488;DHT22;57384;51.986;4.458;2022-09-09T18:13:01;20.30;64.80
38488;DHT22;57384;51.986;4.458;2022-09-09T18:15:28;20.30;64.80
38488;DHT22;57384;51.986;4.458;2022-09-09T18:17:54;20.20;64.80
38488;DHT22;57384;51.986;4.458;2022-09-09T18:20:23;20.30;64.80
38488;DHT22;57384;51.986;4.458;2022-09-09T18:22:50;20.20;64.80
38488;DHT22;57384;51.986;4.458;2022-09-09T18:25:18;20.20;64.80
38488;DHT22;57384;51.986;4.458;2022-09-09T18:27:47;20.20;64.80
38488;DHT22;57384;51.986;4.458;2022-09-09T18:30:14;20.10;64.80